Time;durP1;ratioP1;P1;durP2;ratioP2;P2;SDS_P1;SDS_P2;PMS_P1;PMS_P2;Temp;Humidity;BMP_temperature;BMP_pressure;BME280_temperature;BME280_humidity;BME280_pressure;Samples;Min_cycle;Max_cycle;Signal;HPM_P1;HPM_P2
2023/05/09 00:00:19;;;;;;;7.97;3.83;;;11.00;99.90;;;;;;4877583;29;20840;-83
2023/05/09 00:02:45;;;;;;;10.38;3.90;;;11.00;99.90;;;;;;4877957;29;20492;-75
2023/05/09 00:05:11;;;;;;;6.28;3.28;;;11.00;99.90;;;;;;4877750;29;20044;-76
2023/05/09 00:07:37;;;;;;;5.65;3.20;;;10.90;99.90;;;;;;4878366;29;21027;-83
2023/05/09 00:10:03;;;;;;;11.63;3.88;;;10.80;99.90;;;;;;4877563;29;20025;-83
2023/05/09 00:12:29;;;;;;;8.43;4.50;;;10.70;99.90;;;;;;4860499;29;20053;-82
2023/05/09 00:14:56;;;;;;;13.85;4.57;;;10.70;99.90;;;;;;4878169;29;20417;-80
2023/05/09 00:17:23;;;;;;;9.77;4.03;;;10.70;99.90;;;;;;4878933;29;20029;-83
2023/05/09 00:19:50;;;;;;;12.02;3.63;;;10.70;99.90;;;;;;4881048;29;20029;-80
2023/05/09 00:22:16;;;;;;;6.07;3.40;;;10.60;99.90;;;;;;4887240;29;20029;-78
2023/05/09 00:24:42;;;;;;;9.50;3.40;;;10.60;99.90;;;;;;4883667;29;20033;-80
2023/05/09 00:27:09;;;;;;;8.25;3.22;;;10.70;99.90;;;;;;4883589;29;20090;-82
2023/05/09 00:29:35;;;;;;;6.43;3.63;;;10.70;99.90;;;;;;4882890;29;20035;-78
2023/05/09 00:32:01;;;;;;;7.88;3.40;;;10.70;99.90;;;;;;4878461;29;20083;-84
2023/05/09 00:34:27;;;;;;;5.45;3.20;;;10.70;99.90;;;;;;4877365;29;20477;-82
2023/05/09 00:36:53;;;;;;;9.15;3.28;;;10.70;99.90;;;;;;4860370;29;20478;-82
2023/05/09 00:39:19;;;;;;;9.20;3.53;;;10.80;99.90;;;;;;4877641;29;20048;-81
2023/05/09 00:41:45;;;;;;;8.82;3.20;;;10.80;99.90;;;;;;4881017;29;20048;-77
2023/05/09 00:44:11;;;;;;;7.82;3.65;;;10.70;99.90;;;;;;4884761;29;20029;-83
2023/05/09 00:46:38;;;;;;;5.32;2.95;;;10.70;99.90;;;;;;4864590;29;20029;-82
2023/05/09 00:49:04;;;;;;;7.18;3.38;;;10.70;99.90;;;;;;4878378;29;20029;-84
2023/05/09 00:51:31;;;;;;;5.03;2.88;;;10.70;99.90;;;;;;4876600;29;20100;-81
2023/05/09 00:53:58;;;;;;;8.32;3.63;;;10.70;99.90;;;;;;4876679;29;20037;-84
2023/05/09 00:56:24;;;;;;;9.27;3.10;;;10.70;99.90;;;;;;4860426;29;20477;-83
2023/05/09 00:58:50;;;;;;;10.13;3.13;;;10.70;99.90;;;;;;4876869;29;20036;-82
2023/05/09 01:01:16;;;;;;;7.38;3.22;;;10.70;99.90;;;;;;4878298;29;20021;-76
2023/05/09 01:03:43;;;;;;;7.10;3.88;;;10.60;99.90;;;;;;4877895;29;20035;-81
2023/05/09 01:06:30;;;;;;;5.68;3.25;;;10.60;99.90;;;;;;4877094;29;20121;-84
2023/05/09 01:09:15;;;;;;;8.50;3.38;;;10.50;99.90;;;;;;4877067;29;20364;-84
2023/05/09 01:11:51;;;;;;;7.55;3.13;;;10.40;99.90;;;;;;4859427;29;20394;-77
2023/05/09 01:14:28;;;;;;;7.40;3.63;;;10.30;99.90;;;;;;4864881;29;20036;-83
2023/05/09 01:17:43;;;;;;;6.80;3.30;;;10.20;99.90;;;;;;4880266;29;20394;-84
2023/05/09 01:20:17;;;;;;;8.25;3.70;;;10.10;99.90;;;;;;4799581;29;20480;-83
2023/05/09 01:22:47;;;;;;;6.60;3.30;;;10.10;99.90;;;;;;4785224;29;20047;-83
2023/05/09 01:25:53;;;;;;;7.28;3.28;;;10.00;99.90;;;;;;4784999;30;20043;-82
2023/05/09 01:28:33;;;;;;;8.15;4.07;;;9.90;99.90;;;;;;4770483;30;20036;-84
2023/05/09 01:30:59;;;;;;;6.40;3.45;;;9.90;99.90;;;;;;4768710;30;20058;-84
2023/05/09 01:33:26;;;;;;;8.50;3.53;;;9.90;99.90;;;;;;4768169;30;20102;-75
2023/05/09 01:36:00;;;;;;;5.13;3.15;;;9.80;99.90;;;;;;4783242;30;20036;-83
2023/05/09 01:38:29;;;;;;;12.15;3.67;;;9.70;99.90;;;;;;4782627;30;20554;-75
2023/05/09 01:40:58;;;;;;;6.20;3.60;;;9.70;99.90;;;;;;4783198;30;20074;-77
2023/05/09 01:43:27;;;;;;;5.78;3.50;;;9.60;99.90;;;;;;4788479;30;20048;-82
2023/05/09 01:45:54;;;;;;;9.90;3.95;;;9.60;99.90;;;;;;4788153;30;20035;-83
2023/05/09 01:48:25;;;;;;;5.80;3.50;;;9.60;99.90;;;;;;4769010;30;20043;-82
2023/05/09 01:50:53;;;;;;;8.45;3.50;;;9.60;99.90;;;;;;4783065;30;20093;-83
2023/05/09 01:53:21;;;;;;;9.57;4.20;;;9.60;99.90;;;;;;4783360;30;20057;-83
2023/05/09 01:55:49;;;;;;;8.43;3.60;;;9.60;99.90;;;;;;4780807;29;20045;-84
2023/05/09 01:58:17;;;;;;;6.45;3.95;;;9.50;99.90;;;;;;4854424;29;20397;-79
2023/05/09 02:00:44;;;;;;;5.10;2.90;;;9.60;99.90;;;;;;4859333;29;20057;-82
2023/05/09 02:03:10;;;;;;;6.57;4.03;;;9.70;99.90;;;;;;4875712;29;20051;-83
2023/05/09 02:05:36;;;;;;;13.35;3.83;;;9.70;99.90;;;;;;4880002;29;20067;-83
2023/05/09 02:08:02;;;;;;;8.68;3.60;;;9.80;99.90;;;;;;4877854;29;20041;-82
2023/05/09 02:10:32;;;;;;;8.95;3.80;;;9.80;99.90;;;;;;4860134;29;20029;-83
2023/05/09 02:12:58;;;;;;;9.32;3.53;;;9.80;99.90;;;;;;4872108;29;20071;-82
2023/05/09 02:15:25;;;;;;;7.32;3.78;;;9.90;99.90;;;;;;4881322;29;20060;-78
2023/05/09 02:17:51;;;;;;;7.25;3.45;;;9.80;99.90;;;;;;4882927;29;20062;-83
2023/05/09 02:20:16;;;;;;;9.02;3.60;;;9.80;99.90;;;;;;4899594;29;20029;-81
2023/05/09 02:22:43;;;;;;;7.57;3.85;;;9.90;99.90;;;;;;4899736;29;20127;-84
2023/05/09 02:25:10;;;;;;;8.75;3.92;;;9.90;99.90;;;;;;4882942;29;20033;-79
2023/05/09 02:27:38;;;;;;;8.48;4.18;;;9.80;99.90;;;;;;4899793;29;20061;-80
2023/05/09 02:30:10;;;;;;;10.55;5.10;;;9.90;99.90;;;;;;4899638;29;20024;-83
2023/05/09 02:32:38;;;;;;;7.57;4.35;;;9.80;99.90;;;;;;4883015;29;20099;-77
2023/05/09 02:35:06;;;;;;;8.27;3.85;;;9.80;99.90;;;;;;4899558;29;20047;-84
2023/05/09 02:37:32;;;;;;;6.22;3.83;;;9.80;99.90;;;;;;4882505;29;20040;-83
2023/05/09 02:40:00;;;;;;;6.95;4.05;;;9.70;99.90;;;;;;4899715;29;20047;-82
2023/05/09 02:42:28;;;;;;;10.13;4.03;;;9.70;99.90;;;;;;4882286;29;20044;-82
2023/05/09 02:44:55;;;;;;;7.70;3.53;;;9.70;99.90;;;;;;4899419;29;20024;-82
2023/05/09 02:47:21;;;;;;;10.63;4.43;;;9.60;99.90;;;;;;4899034;29;20384;-83
2023/05/09 02:49:47;;;;;;;8.25;3.17;;;9.60;99.90;;;;;;4899391;29;20048;-83
2023/05/09 02:52:14;;;;;;;7.13;4.15;;;9.60;99.90;;;;;;4882192;29;20440;-82
2023/05/09 02:54:40;;;;;;;8.10;3.70;;;9.60;99.90;;;;;;4899357;29;20032;-78
2023/05/09 02:57:06;;;;;;;8.55;4.47;;;9.60;99.90;;;;;;4881530;29;20063;-81
2023/05/09 02:59:32;;;;;;;7.53;3.92;;;9.50;99.90;;;;;;4898977;29;20056;-82
2023/05/09 03:02:00;;;;;;;5.65;3.65;;;9.60;99.90;;;;;;4882008;29;20036;-76
2023/05/09 03:04:26;;;;;;;8.93;4.35;;;9.50;99.90;;;;;;4881912;29;20039;-80
2023/05/09 03:06:52;;;;;;;7.90;3.53;;;9.50;99.90;;;;;;4898948;29;20025;-82
2023/05/09 03:09:19;;;;;;;11.52;4.47;;;9.50;99.90;;;;;;4881938;29;20025;-83
2023/05/09 03:11:45;;;;;;;13.13;3.83;;;9.60;99.90;;;;;;4882126;29;20040;-83
2023/05/09 03:14:12;;;;;;;10.40;3.60;;;9.50;99.90;;;;;;4881550;29;20029;-78
2023/05/09 03:16:38;;;;;;;11.20;3.53;;;9.60;99.90;;;;;;4869990;29;20482;-83
2023/05/09 03:19:08;;;;;;;10.05;4.55;;;9.50;99.90;;;;;;4881951;29;20031;-82
2023/05/09 03:21:34;;;;;;;7.20;3.63;;;9.60;99.90;;;;;;4898437;29;20460;-75
2023/05/09 03:24:00;;;;;;;7.38;3.50;;;9.60;99.90;;;;;;4881827;29;20498;-81
2023/05/09 03:26:25;;;;;;;6.72;3.80;;;9.60;99.90;;;;;;4880407;29;20047;-78
2023/05/09 03:28:53;;;;;;;9.57;3.70;;;9.60;99.90;;;;;;4898525;29;20037;-82
2023/05/09 03:31:18;;;;;;;6.03;3.83;;;9.60;99.90;;;;;;4881551;29;20028;-83
2023/05/09 03:33:44;;;;;;;10.27;3.97;;;9.60;99.90;;;;;;4881844;29;20032;-81
2023/05/09 03:36:10;;;;;;;9.88;4.40;;;9.60;99.90;;;;;;4898167;29;20021;-80
2023/05/09 03:38:39;;;;;;;9.40;4.05;;;9.70;99.90;;;;;;4878461;29;20053;-82
2023/05/09 03:41:05;;;;;;;7.60;4.47;;;9.90;99.90;;;;;;4879308;29;20575;-78
2023/05/09 03:43:32;;;;;;;8.63;4.60;;;10.10;99.90;;;;;;4878201;29;20443;-81
2023/05/09 03:45:58;;;;;;;8.32;3.60;;;10.30;99.90;;;;;;4879399;29;20121;-81
2023/05/09 03:48:25;;;;;;;11.50;4.40;;;10.60;99.90;;;;;;4878050;29;20029;-77
2023/05/09 03:50:51;;;;;;;7.85;4.25;;;11.00;99.90;;;;;;4878290;29;20028;-81
2023/05/09 03:53:17;;;;;;;10.13;4.10;;;11.10;99.90;;;;;;4878124;29;20060;-81
2023/05/09 03:55:46;;;;;;;9.05;4.30;;;11.30;99.90;;;;;;4878138;29;20029;-83
2023/05/09 03:58:14;;;;;;;5.55;3.00;;;11.40;99.90;;;;;;4877982;29;20037;-82
2023/05/09 04:00:41;;;;;;;6.75;3.25;;;11.60;99.90;;;;;;4881918;29;20084;-78
2023/05/09 04:03:13;;;;;;;7.32;3.65;;;11.80;99.90;;;;;;4889576;29;20037;-83
2023/05/09 04:05:43;;;;;;;9.75;3.75;;;11.90;99.90;;;;;;4893244;29;20037;-79
2023/05/09 04:08:16;;;;;;;11.82;3.65;;;11.90;99.90;;;;;;4879906;29;20116;-78
2023/05/09 04:10:42;;;;;;;10.63;4.35;;;12.30;99.90;;;;;;4890515;29;20544;-76
2023/05/09 04:13:08;;;;;;;10.05;3.83;;;12.20;99.90;;;;;;4879702;29;20025;-80
2023/05/09 04:15:34;;;;;;;7.55;4.25;;;12.00;99.90;;;;;;4884720;29;20124;-80
2023/05/09 04:18:01;;;;;;;7.40;4.13;;;12.20;99.90;;;;;;4884958;29;20438;-82
2023/05/09 04:20:27;;;;;;;6.65;3.38;;;12.40;99.90;;;;;;4867836;29;20491;-84
2023/05/09 04:22:53;;;;;;;7.88;4.07;;;12.20;99.90;;;;;;4870100;29;20548;-82
2023/05/09 04:25:20;;;;;;;12.25;4.43;;;12.40;99.90;;;;;;4863697;29;20371;-81
2023/05/09 04:27:46;;;;;;;8.15;3.40;;;12.60;99.90;;;;;;4865826;29;21279;-82
2023/05/09 04:30:12;;;;;;;13.68;4.18;;;12.60;99.90;;;;;;4863761;29;20486;-84
2023/05/09 04:32:39;;;;;;;12.13;4.65;;;12.00;99.90;;;;;;4862174;29;20037;-82
2023/05/09 04:35:07;;;;;;;8.82;3.33;;;11.80;99.90;;;;;;4860359;29;20485;-80
2023/05/09 04:37:37;;;;;;;6.30;3.40;;;11.80;99.90;;;;;;4854821;29;20048;-82
2023/05/09 04:40:04;;;;;;;8.10;3.55;;;11.60;99.90;;;;;;4896908;29;20040;-76
2023/05/09 04:42:38;;;;;;;6.68;3.72;;;11.30;99.90;;;;;;4880212;29;20040;-76
2023/05/09 04:45:06;;;;;;;8.15;4.78;;;11.20;99.90;;;;;;4879972;29;20516;-78
2023/05/09 04:47:32;;;;;;;9.18;4.13;;;11.20;99.90;;;;;;4897428;29;20029;-82
2023/05/09 04:49:58;;;;;;;8.60;4.78;;;11.20;99.90;;;;;;4897087;29;20031;-83
2023/05/09 04:52:23;;;;;;;8.82;4.53;;;11.30;99.90;;;;;;4896824;29;20020;-75
2023/05/09 04:54:49;;;;;;;13.15;4.97;;;11.40;99.90;;;;;;4879972;29;20064;-82
2023/05/09 04:57:18;;;;;;;7.35;3.83;;;11.50;99.90;;;;;;4880550;29;20025;-82
2023/05/09 04:59:49;;;;;;;9.07;4.07;;;11.70;99.90;;;;;;4880096;29;20040;-82
2023/05/09 05:02:15;;;;;;;10.30;5.55;;;11.80;99.90;;;;;;4880213;29;20480;-76
2023/05/09 05:04:42;;;;;;;13.77;5.20;;;11.90;99.90;;;;;;4880001;29;20528;-80
2023/05/09 05:07:08;;;;;;;9.25;4.85;;;11.90;99.90;;;;;;4880191;29;20033;-83
2023/05/09 05:09:35;;;;;;;11.05;4.72;;;11.80;99.90;;;;;;4880358;29;20035;-78
2023/05/09 05:12:06;;;;;;;10.10;4.53;;;12.00;99.90;;;;;;4880143;29;20039;-82
2023/05/09 05:14:33;;;;;;;6.25;3.78;;;12.10;99.90;;;;;;4880065;29;20106;-82
2023/05/09 05:17:00;;;;;;;8.30;3.30;;;12.20;99.90;;;;;;4879886;29;20020;-83
2023/05/09 05:19:25;;;;;;;8.77;4.10;;;12.30;99.90;;;;;;4897432;29;20039;-77
2023/05/09 05:21:51;;;;;;;7.90;3.78;;;12.40;99.90;;;;;;4879814;29;20028;-83
2023/05/09 05:24:17;;;;;;;7.45;4.13;;;12.50;99.90;;;;;;4879797;29;20100;-81
2023/05/09 05:26:46;;;;;;;6.93;3.25;;;12.50;99.90;;;;;;4879876;29;20116;-75
2023/05/09 05:29:12;;;;;;;9.90;3.53;;;12.60;99.90;;;;;;4879970;29;20613;-80
2023/05/09 05:31:37;;;;;;;6.97;4.38;;;12.60;99.90;;;;;;4880306;29;20422;-76
2023/05/09 05:34:03;;;;;;;7.57;4.20;;;12.70;99.90;;;;;;4880097;29;20108;-81
2023/05/09 05:36:32;;;;;;;8.90;4.55;;;12.50;99.90;;;;;;4880069;29;20096;-79
2023/05/09 05:38:58;;;;;;;9.40;4.05;;;11.90;99.90;;;;;;4879610;29;20083;-80
2023/05/09 05:41:25;;;;;;;9.98;4.22;;;11.80;99.90;;;;;;4880008;29;20493;-75
2023/05/09 05:43:51;;;;;;;10.45;4.47;;;12.10;99.90;;;;;;4879679;29;20118;-81
2023/05/09 05:46:17;;;;;;;7.78;4.00;;;11.90;99.90;;;;;;4880008;29;20377;-82
2023/05/09 05:48:43;;;;;;;9.10;3.83;;;12.20;99.90;;;;;;4879608;29;20460;-81
2023/05/09 05:51:09;;;;;;;8.23;3.83;;;12.10;99.90;;;;;;4882894;29;20025;-82
2023/05/09 05:53:35;;;;;;;6.95;3.55;;;12.10;99.90;;;;;;4883241;29;20700;-80
2023/05/09 05:56:00;;;;;;;5.97;3.63;;;12.30;99.90;;;;;;4900298;29;20433;-77
2023/05/09 05:58:26;;;;;;;8.13;4.20;;;12.30;99.90;;;;;;4883186;29;20396;-81
2023/05/09 06:00:53;;;;;;;9.07;4.10;;;12.60;99.90;;;;;;4882642;29;20028;-81
2023/05/09 06:03:19;;;;;;;7.40;4.00;;;13.00;99.90;;;;;;4882580;29;20131;-75
2023/05/09 06:05:58;;;;;;;9.60;3.90;;;13.00;99.90;;;;;;4877104;29;20084;-80
2023/05/09 06:08:25;;;;;;;7.85;4.07;;;13.40;99.90;;;;;;4876976;29;20088;-75
2023/05/09 06:10:51;;;;;;;9.55;4.07;;;13.30;99.90;;;;;;4879329;29;20112;-78
2023/05/09 06:13:17;;;;;;;7.65;4.13;;;14.00;99.90;;;;;;4896330;29;20465;-82
2023/05/09 06:15:48;;;;;;;11.55;3.95;;;14.30;99.90;;;;;;4883080;29;20381;-79
2023/05/09 06:18:14;;;;;;;12.90;4.05;;;14.60;99.90;;;;;;4881287;29;20528;-83
2023/05/09 06:20:40;;;;;;;7.65;3.97;;;14.80;99.90;;;;;;4883201;29;20076;-81
2023/05/09 06:23:06;;;;;;;6.88;4.07;;;15.20;99.90;;;;;;4899443;29;20049;-82
2023/05/09 06:25:32;;;;;;;7.00;3.42;;;15.40;99.00;;;;;;4882773;29;20032;-81
2023/05/09 06:27:58;;;;;;;9.13;3.70;;;15.20;96.90;;;;;;4899578;29;20037;-78
2023/05/09 06:30:23;;;;;;;4.93;3.05;;;15.30;96.10;;;;;;4897763;29;20021;-80
2023/05/09 06:32:49;;;;;;;5.28;3.05;;;15.20;95.60;;;;;;4899421;29;20032;-80
2023/05/09 06:35:15;;;;;;;8.75;4.38;;;15.20;94.80;;;;;;4899776;29;20036;-78
2023/05/09 06:37:41;;;;;;;7.60;3.88;;;14.70;93.60;;;;;;4899213;29;20134;-78
2023/05/09 06:40:07;;;;;;;6.70;3.72;;;14.90;95.00;;;;;;4895612;29;20040;-76
2023/05/09 06:42:33;;;;;;;8.18;3.92;;;14.60;94.40;;;;;;4894942;29;20128;-81
2023/05/09 06:44:59;;;;;;;6.28;3.70;;;14.40;95.40;;;;;;4899004;29;20124;-76
2023/05/09 06:47:25;;;;;;;7.10;3.95;;;14.40;96.10;;;;;;4899451;29;20036;-79
2023/05/09 06:49:51;;;;;;;7.22;3.25;;;14.90;97.80;;;;;;4899300;29;20028;-81
2023/05/09 06:52:16;;;;;;;6.63;3.60;;;14.60;94.90;;;;;;4896592;29;20092;-76
2023/05/09 06:54:42;;;;;;;9.63;4.40;;;15.00;94.90;;;;;;4897499;29;20112;-79
2023/05/09 06:57:08;;;;;;;6.55;3.70;;;14.80;95.20;;;;;;4899066;29;20205;-80
2023/05/09 06:59:34;;;;;;;9.35;4.03;;;14.90;94.20;;;;;;4898612;29;20024;-80
2023/05/09 07:01:59;;;;;;;7.72;3.50;;;15.40;93.60;;;;;;4897270;29;20448;-76
2023/05/09 07:04:25;;;;;;;7.18;4.13;;;15.80;95.00;;;;;;4894707;29;20029;-79
2023/05/09 07:06:51;;;;;;;7.68;4.10;;;16.10;95.50;;;;;;4896921;29;20032;-79
2023/05/09 07:09:19;;;;;;;8.48;4.00;;;15.80;93.10;;;;;;4889460;29;20052;-78
2023/05/09 07:11:45;;;;;;;7.13;4.25;;;15.80;91.90;;;;;;4898743;29;20080;-80
2023/05/09 07:14:11;;;;;;;7.97;4.60;;;15.90;93.10;;;;;;4894927;29;20501;-77
2023/05/09 07:16:37;;;;;;;7.00;3.80;;;16.00;91.80;;;;;;4887531;29;20068;-76
2023/05/09 07:19:03;;;;;;;7.82;3.90;;;16.40;91.60;;;;;;4888834;29;20035;-76
2023/05/09 07:21:29;;;;;;;8.68;4.38;;;16.50;91.00;;;;;;4885693;29;20033;-76
2023/05/09 07:23:54;;;;;;;5.63;3.65;;;16.10;91.80;;;;;;4889328;29;20036;-78
2023/05/09 07:26:20;;;;;;;6.80;3.80;;;16.60;92.70;;;;;;4887988;29;20553;-76
2023/05/09 07:28:46;;;;;;;10.63;4.68;;;16.70;91.60;;;;;;4886351;29;20488;-79
2023/05/09 07:31:12;;;;;;;8.70;3.80;;;16.90;91.80;;;;;;4888285;29;20032;-76
2023/05/09 07:33:37;;;;;;;6.68;4.00;;;17.20;91.30;;;;;;4885937;29;20040;-75
2023/05/09 07:36:03;;;;;;;8.77;4.90;;;17.20;91.90;;;;;;4882978;29;20080;-78
2023/05/09 07:38:29;;;;;;;9.85;4.43;;;17.30;90.70;;;;;;4878410;29;20057;-78
2023/05/09 07:40:55;;;;;;;8.25;3.85;;;17.30;91.90;;;;;;4881695;29;20454;-76
2023/05/09 07:43:21;;;;;;;9.50;4.80;;;17.10;91.50;;;;;;4884416;29;20041;-76
2023/05/09 07:45:47;;;;;;;8.60;4.38;;;17.10;91.00;;;;;;4885251;29;20483;-75
2023/05/09 07:48:12;;;;;;;9.25;4.78;;;16.50;91.60;;;;;;4887346;29;20033;-75
2023/05/09 07:50:39;;;;;;;8.57;4.70;;;16.70;93.40;;;;;;4883733;29;20128;-76
2023/05/09 07:53:05;;;;;;;10.95;4.43;;;16.80;91.70;;;;;;4887007;29;20028;-75
2023/05/09 07:55:31;;;;;;;12.50;4.50;;;16.70;91.60;;;;;;4898287;29;20469;-75
2023/05/09 07:57:56;;;;;;;10.05;4.80;;;16.40;91.20;;;;;;4897833;29;20115;-76
2023/05/09 08:00:23;;;;;;;7.88;4.85;;;16.50;93.20;;;;;;4896180;29;20438;-76
2023/05/09 08:02:51;;;;;;;10.20;4.47;;;16.90;91.60;;;;;;4897732;29;20039;-78
2023/05/09 08:05:17;;;;;;;10.13;4.60;;;16.80;94.00;;;;;;4897722;29;20119;-79
2023/05/09 08:07:43;;;;;;;9.68;5.40;;;16.70;91.50;;;;;;4898096;29;20025;-79
2023/05/09 08:10:10;;;;;;;10.82;4.57;;;16.60;91.80;;;;;;4895700;29;20664;-78
2023/05/09 08:12:35;;;;;;;9.00;4.63;;;16.80;94.90;;;;;;4896898;29;20092;-74
2023/05/09 08:15:01;;;;;;;11.63;4.63;;;17.20;94.30;;;;;;4897264;29;20461;-78
2023/05/09 08:17:27;;;;;;;8.02;4.72;;;17.30;92.00;;;;;;4897884;29;20080;-74
2023/05/09 08:19:53;;;;;;;11.25;4.47;;;16.50;91.90;;;;;;4885123;29;20096;-77
2023/05/09 08:22:19;;;;;;;7.43;4.03;;;16.70;93.20;;;;;;4897555;29;20061;-78
2023/05/09 08:24:46;;;;;;;12.77;4.82;;;16.80;92.30;;;;;;4894886;29;20051;-75
2023/05/09 08:27:13;;;;;;;12.05;5.05;;;16.80;91.70;;;;;;4896168;29;20108;-75
2023/05/09 08:29:42;;;;;;;10.70;5.60;;;17.10;93.00;;;;;;4897365;29;20388;-77
2023/05/09 08:32:08;;;;;;;8.20;4.70;;;17.00;91.50;;;;;;4880608;29;20404;-75
2023/05/09 08:34:34;;;;;;;9.10;4.60;;;17.00;92.00;;;;;;4897281;29;20029;-76
2023/05/09 08:37:01;;;;;;;8.15;4.57;;;17.00;91.80;;;;;;4897153;29;20039;-80
2023/05/09 08:39:27;;;;;;;14.63;5.40;;;17.50;92.70;;;;;;4897150;29;20120;-77
2023/05/09 08:41:59;;;;;;;12.77;5.45;;;17.90;93.50;;;;;;4897106;29;20470;-78
2023/05/09 08:44:25;;;;;;;;;;;18.40;93.60;;;;;;4897417;29;20044;-78
2023/05/09 08:47:03;;;;;;;8.25;5.22;;;18.40;92.30;;;;;;4897372;29;19908;-75
2023/05/09 08:49:29;;;;;;;8.32;4.65;;;18.20;91.90;;;;;;4897095;29;20465;-76
2023/05/09 08:51:56;;;;;;;8.27;4.65;;;18.20;94.20;;;;;;4897663;29;20115;-75
2023/05/09 08:54:23;;;;;;;17.60;5.47;;;18.10;93.20;;;;;;4895398;29;20039;-77
2023/05/09 08:56:50;;;;;;;8.85;5.10;;;18.30;92.90;;;;;;4877595;29;20026;-78
2023/05/09 08:59:17;;;;;;;10.57;5.10;;;18.60;93.60;;;;;;4882696;29;20028;-74
2023/05/09 09:01:43;;;;;;;8.95;4.70;;;18.80;93.00;;;;;;4892793;29;20459;-78
2023/05/09 09:04:12;;;;;;;11.30;5.13;;;18.90;93.30;;;;;;4883408;29;20044;-78
2023/05/09 09:06:39;;;;;;;13.48;5.70;;;19.00;92.50;;;;;;4895106;29;20036;-77
2023/05/09 09:09:09;;;;;;;8.88;4.47;;;18.60;92.50;;;;;;4897166;29;20032;-76
2023/05/09 09:11:37;;;;;;;9.52;4.30;;;18.30;92.20;;;;;;4896789;29;20089;-76
2023/05/09 09:14:11;;;;;;;9.93;5.43;;;18.40;92.10;;;;;;4897107;29;20029;-78
2023/05/09 09:16:37;;;;;;;19.17;6.00;;;18.60;92.20;;;;;;4896921;29;20028;-75
2023/05/09 09:19:06;;;;;;;13.55;5.88;;;18.20;92.10;;;;;;4897374;29;20103;-75
2023/05/09 09:21:32;;;;;;;39.45;12.50;;;18.30;92.80;;;;;;4896990;29;20485;-75
2023/05/09 09:23:59;;;;;;;16.15;6.53;;;18.60;93.30;;;;;;4898045;29;20037;-75
2023/05/09 09:26:30;;;;;;;17.10;7.13;;;18.40;93.40;;;;;;4900902;29;20560;-78
2023/05/09 09:28:56;;;;;;;56.63;16.25;;;18.50;94.60;;;;;;4900936;29;20098;-74
2023/05/09 09:31:24;;;;;;;10.20;5.18;;;18.80;94.60;;;;;;4900363;29;20021;-76
2023/05/09 09:33:50;;;;;;;12.00;5.55;;;18.80;92.70;;;;;;4899452;29;20024;-73
2023/05/09 09:36:26;;;;;;;10.90;5.85;;;18.40;93.30;;;;;;4899653;29;20111;-73
2023/05/09 09:38:59;;;;;;;14.27;5.85;;;18.70;92.30;;;;;;4900168;29;20060;-77
2023/05/09 09:41:35;;;;;;;27.30;11.20;;;18.40;92.50;;;;;;4900295;29;20040;-78
2023/05/09 09:44:12;;;;;;;18.40;6.97;;;18.50;93.30;;;;;;4900220;29;20047;-77
2023/05/09 09:46:46;;;;;;;26.17;10.95;;;19.10;94.30;;;;;;4900040;29;20484;-75
2023/05/09 09:49:13;;;;;;;11.27;5.28;;;19.30;92.90;;;;;;4900085;29;20520;-74
2023/05/09 09:51:40;;;;;;;32.78;13.70;;;18.60;92.10;;;;;;4900240;29;20389;-74
2023/05/09 09:54:07;;;;;;;11.90;6.05;;;19.10;92.90;;;;;;4899899;29;20504;-79
2023/05/09 09:56:52;;;;;;;12.90;6.28;;;18.90;92.60;;;;;;4900334;29;20021;-76
2023/05/09 09:59:23;;;;;;;9.73;5.15;;;19.00;92.60;;;;;;4889421;29;20032;-80
2023/05/09 10:02:00;;;;;;;7.90;4.77;;;19.00;94.00;;;;;;4898715;29;20029;-77
2023/05/09 10:04:37;;;;;;;11.18;5.20;;;18.80;93.10;;;;;;4893186;29;20279;-73
2023/05/09 10:07:06;;;;;;;10.23;5.07;;;18.90;93.20;;;;;;4887728;29;20089;-80
2023/05/09 10:09:33;;;;;;;11.60;5.00;;;18.80;92.60;;;;;;4887300;29;20033;-80
2023/05/09 10:12:04;;;;;;;12.13;5.78;;;19.10;93.80;;;;;;4900000;29;20420;-78
2023/05/09 10:14:32;;;;;;;12.48;5.47;;;19.20;92.70;;;;;;4898757;29;20124;-77
2023/05/09 10:17:00;;;;;;;12.77;4.88;;;19.20;92.00;;;;;;4899771;29;20044;-74
2023/05/09 10:19:28;;;;;;;5.65;3.85;;;19.10;91.90;;;;;;4899637;29;20031;-77
2023/05/09 10:22:01;;;;;;;8.25;4.15;;;18.60;90.90;;;;;;4899824;29;20021;-77
2023/05/09 10:24:34;;;;;;;7.28;4.50;;;18.40;91.90;;;;;;4899689;29;20077;-79
2023/05/09 10:27:09;;;;;;;8.27;4.15;;;18.80;92.10;;;;;;4899394;29;20037;-78
2023/05/09 10:29:45;;;;;;;9.27;4.53;;;18.90;92.60;;;;;;4899649;29;20037;-74
2023/05/09 10:32:14;;;;;;;10.63;3.95;;;19.20;92.30;;;;;;4899039;29;20061;-74
2023/05/09 10:34:42;;;;;;;12.05;4.25;;;19.20;92.00;;;;;;4891004;29;20148;-75
2023/05/09 10:37:08;;;;;;;9.02;4.00;;;18.80;91.80;;;;;;4896010;29;20378;-75
2023/05/09 10:39:36;;;;;;;8.77;4.43;;;18.90;91.40;;;;;;4885861;29;20479;-79
2023/05/09 10:42:03;;;;;;;7.40;4.32;;;18.80;91.90;;;;;;4899412;29;20481;-80
2023/05/09 10:44:29;;;;;;;7.65;4.15;;;18.90;92.40;;;;;;4899138;29;20481;-76
2023/05/09 10:46:56;;;;;;;8.45;3.97;;;19.00;91.30;;;;;;4899456;29;20123;-73
2023/05/09 10:49:22;;;;;;;7.25;3.58;;;19.00;91.60;;;;;;4899149;29;20039;-79
2023/05/09 10:51:50;;;;;;;7.38;3.67;;;18.90;92.80;;;;;;4899321;29;20544;-80
2023/05/09 10:54:27;;;;;;;10.35;4.43;;;19.10;91.70;;;;;;4897604;29;20044;-79
2023/05/09 10:56:54;;;;;;;7.43;4.32;;;19.30;91.70;;;;;;4899146;29;20043;-73
2023/05/09 10:59:38;;;;;;;7.38;3.78;;;19.20;93.30;;;;;;4882131;29;20449;-73
2023/05/09 11:02:05;;;;;;;7.18;4.25;;;19.00;92.20;;;;;;4898634;29;20041;-79
2023/05/09 11:04:31;;;;;;;7.25;4.22;;;19.20;91.90;;;;;;4899048;29;20474;-80
2023/05/09 11:07:00;;;;;;;10.23;4.53;;;19.10;93.60;;;;;;4898649;29;20088;-76
2023/05/09 11:09:33;;;;;;;6.30;4.30;;;18.50;93.60;;;;;;4899255;29;20024;-76
2023/05/09 11:12:10;;;;;;;9.73;4.30;;;18.70;92.20;;;;;;4898840;29;20092;-75
2023/05/09 11:14:41;;;;;;;7.43;4.95;;;19.30;92.80;;;;;;4898611;29;20100;-75
2023/05/09 11:17:21;;;;;;;5.60;3.85;;;19.50;92.30;;;;;;4896077;29;20020;-74
2023/05/09 11:19:47;;;;;;;7.63;4.80;;;19.50;90.50;;;;;;4897798;29;20041;-76
2023/05/09 11:22:21;;;;;;;7.38;4.28;;;20.00;92.00;;;;;;4897608;29;20616;-74
2023/05/09 11:24:57;;;;;;;4.22;3.20;;;20.60;92.20;;;;;;4898347;29;20465;-76
2023/05/09 11:27:25;;;;;;;9.68;3.47;;;19.80;89.90;;;;;;4897308;29;20046;-77
2023/05/09 11:29:52;;;;;;;6.47;3.42;;;19.30;90.30;;;;;;4897010;29;20064;-76
2023/05/09 11:32:26;;;;;;;4.40;2.88;;;19.30;89.50;;;;;;4898002;29;20076;-76
2023/05/09 11:35:14;;;;;;;6.50;3.35;;;19.60;88.50;;;;;;4898443;29;20044;-78
2023/05/09 11:37:46;;;;;;;2.88;2.35;;;20.00;93.00;;;;;;4884204;29;20033;-74
2023/05/09 11:40:13;;;;;;;;;;;20.30;89.70;;;;;;4886726;29;20037;-77
2023/05/09 11:42:43;;;;;;;4.47;2.00;;;19.70;83.50;;;;;;4878787;29;20002;-76
2023/05/09 11:45:11;;;;;;;3.85;2.80;;;19.90;85.30;;;;;;4883645;29;20033;-77
2023/05/09 11:47:37;;;;;;;8.32;2.85;;;19.40;86.20;;;;;;4885447;29;20462;-77
2023/05/09 11:50:09;;;;;;;4.85;2.50;;;19.70;84.20;;;;;;4898080;29;20092;-77
2023/05/09 11:52:37;;;;;;;10.15;2.60;;;20.10;83.20;;;;;;4880724;29;20565;-76
2023/05/09 11:55:06;;;;;;;5.25;2.63;;;20.40;88.70;;;;;;4897373;29;20389;-75
2023/05/09 11:57:32;;;;;;;4.80;2.67;;;20.50;86.30;;;;;;4896950;29;20025;-76
2023/05/09 12:00:00;;;;;;;7.40;2.28;;;20.80;86.10;;;;;;4897557;29;20028;-75
2023/05/09 12:02:26;;;;;;;2.75;1.80;;;20.40;84.70;;;;;;4897961;29;20532;-75
2023/05/09 12:04:53;;;;;;;3.80;2.42;;;20.70;88.00;;;;;;4897086;29;20038;-76
2023/05/09 12:07:19;;;;;;;4.25;2.38;;;20.50;83.20;;;;;;4897682;29;20041;-75
2023/05/09 12:09:54;;;;;;;3.40;2.05;;;20.10;84.80;;;;;;5069524;28;20380;-76
2023/05/09 12:12:21;;;;;;;5.45;2.22;;;20.10;88.00;;;;;;5054872;28;20055;-76
2023/05/09 12:14:47;;;;;;;3.28;1.98;;;20.20;88.20;;;;;;5069222;28;20025;-76
2023/05/09 12:17:13;;;;;;;4.65;2.08;;;20.40;86.30;;;;;;5069014;28;20029;-74
2023/05/09 12:19:39;;;;;;;7.70;2.45;;;20.30;84.80;;;;;;5067733;28;20090;-77
2023/05/09 12:22:05;;;;;;;5.05;2.83;;;20.50;88.10;;;;;;5069068;28;20025;-77
2023/05/09 12:24:34;;;;;;;5.30;2.45;;;20.40;86.20;;;;;;5069094;28;20031;-76
2023/05/09 12:27:04;;;;;;;5.78;2.53;;;20.00;86.00;;;;;;5042246;28;20024;-78
2023/05/09 12:29:30;;;;;;;4.70;2.35;;;19.90;89.20;;;;;;5069198;28;20040;-75
2023/05/09 12:31:58;;;;;;;4.07;2.45;;;19.60;87.00;;;;;;5067173;28;20143;-75
2023/05/09 12:34:24;;;;;;;6.32;2.67;;;19.50;85.50;;;;;;5055325;28;20025;-76
2023/05/09 12:36:50;;;;;;;7.47;2.50;;;19.70;85.80;;;;;;5068959;28;20492;-76
2023/05/09 12:39:21;;;;;;;4.95;2.28;;;19.90;86.60;;;;;;5068539;28;20102;-77
2023/05/09 12:41:48;;;;;;;7.50;2.35;;;20.10;90.00;;;;;;5058416;28;20112;-76
2023/05/09 12:44:23;;;;;;;5.45;3.00;;;20.30;88.60;;;;;;5061158;28;20112;-75
2023/05/09 12:46:56;;;;;;;3.88;2.47;;;20.30;88.60;;;;;;5047356;28;20115;-76
2023/05/09 12:49:23;;;;;;;3.38;2.10;;;20.50;89.00;;;;;;5049207;28;20409;-74